createdAt,value
2023-01-27T00:00:39.199Z,99.90
2023-01-27T00:03:40.917Z,99.90
2023-01-27T00:06:42.756Z,99.90
2023-01-27T00:09:44.498Z,99.90
2023-01-27T00:13:06.421Z,99.90
2023-01-27T00:16:08.176Z,99.90
2023-01-27T00:19:09.990Z,99.90
2023-01-27T00:22:30.654Z,99.90
2023-01-27T00:25:32.344Z,99.90
2023-01-27T00:28:38.438Z,99.80
2023-01-27T00:31:58.660Z,99.70
2023-01-27T00:35:00.368Z,99.80
2023-01-27T00:38:02.066Z,99.70
2023-01-27T00:41:19.478Z,99.90
2023-01-27T00:44:21.345Z,99.70
2023-01-27T00:47:23.087Z,99.70
2023-01-27T00:50:24.915Z,99.60
2023-01-27T00:53:26.830Z,99.80
2023-01-27T00:56:29.002Z,99.40
2023-01-27T00:59:31.671Z,99.40
2023-01-27T01:02:33.607Z,99.40
2023-01-27T01:05:35.371Z,99.40
2023-01-27T01:08:38.136Z,99.40
2023-01-27T01:11:39.886Z,99.40
2023-01-27T01:14:41.846Z,99.50
2023-01-27T01:17:43.640Z,99.40
2023-01-27T01:20:46.648Z,99.50
2023-01-27T01:23:48.510Z,99.40
2023-01-27T01:26:50.312Z,99.40
2023-01-27T01:29:52.046Z,99.50
2023-01-27T01:32:54.613Z,99.50
2023-01-27T01:35:56.293Z,99.60
2023-01-27T01:38:58.314Z,99.60
2023-01-27T01:42:00.305Z,99.60
2023-01-27T01:45:29.987Z,99.60
2023-01-27T01:48:58.742Z,98.90
2023-01-27T01:52:07.129Z,99.40
2023-01-27T01:55:09.636Z,99.40
2023-01-27T01:58:12.994Z,99.50
2023-01-27T02:01:16.783Z,99.40
2023-01-27T02:04:25.321Z,99.30
2023-01-27T02:07:58.778Z,99.20
2023-01-27T02:11:00.616Z,98.80
2023-01-27T02:14:02.940Z,99.40
2023-01-27T02:17:05.707Z,99.40
2023-01-27T02:20:46.330Z,99.40
2023-01-27T02:24:00.588Z,99.00
2023-01-27T02:27:02.487Z,99.40
2023-01-27T02:30:04.446Z,99.50
2023-01-27T02:33:13.607Z,99.50
2023-01-27T02:36:17.720Z,99.20
2023-01-27T02:39:24.009Z,99.40
2023-01-27T02:42:25.705Z,99.40
2023-01-27T02:45:29.092Z,99.50
2023-01-27T02:48:30.978Z,99.50
2023-01-27T02:51:32.691Z,99.50
2023-01-27T02:54:34.499Z,99.60
2023-01-27T02:57:36.565Z,99.50
2023-01-27T03:00:38.266Z,99.50
2023-01-27T03:03:46.974Z,99.40
2023-01-27T03:06:48.937Z,99.50
2023-01-27T03:09:50.663Z,99.40
2023-01-27T03:12:52.429Z,99.50
2023-01-27T03:16:14.593Z,99.60
2023-01-27T03:19:16.425Z,99.60
2023-01-27T03:22:18.104Z,99.60
2023-01-27T03:25:19.967Z,99.60
2023-01-27T03:28:21.920Z,99.60
2023-01-27T03:31:23.711Z,99.50
2023-01-27T03:34:25.484Z,99.50
2023-01-27T03:37:46.923Z,99.50
2023-01-27T03:41:07.502Z,99.30
2023-01-27T03:44:29.090Z,99.40
2023-01-27T03:47:30.809Z,99.30
2023-01-27T03:50:37.959Z,99.30
2023-01-27T03:53:39.926Z,99.30
2023-01-27T03:56:41.683Z,99.30
2023-01-27T03:59:43.644Z,99.30
2023-01-27T04:03:04.225Z,99.30
2023-01-27T04:06:26.505Z,99.20
2023-01-27T04:09:30.840Z,99.20
2023-01-27T04:12:32.625Z,99.30
2023-01-27T04:15:34.392Z,99.30
2023-01-27T04:18:38.016Z,99.30
2023-01-27T04:21:40.529Z,99.40
2023-01-27T04:24:43.017Z,99.40
2023-01-27T04:27:45.060Z,99.40
2023-01-27T04:30:47.064Z,99.40
2023-01-27T04:33:49.567Z,99.50
2023-01-27T04:36:52.338Z,99.50
2023-01-27T04:39:54.159Z,99.50
2023-01-27T04:42:55.856Z,99.50
2023-01-27T04:45:57.706Z,99.50
2023-01-27T04:48:59.764Z,99.50
2023-01-27T04:52:02.077Z,99.50
2023-01-27T04:55:03.922Z,99.60
2023-01-27T04:58:05.853Z,99.60
2023-01-27T05:01:07.770Z,99.60
2023-01-27T05:04:09.461Z,99.60
2023-01-27T05:07:11.262Z,99.60
2023-01-27T05:10:12.988Z,99.60
2023-01-27T05:13:15.300Z,99.60
2023-01-27T05:16:19.994Z,99.60
2023-01-27T05:19:23.938Z,99.50
2023-01-27T05:22:25.897Z,99.60
2023-01-27T05:25:27.598Z,99.60
2023-01-27T05:28:30.982Z,99.60
2023-01-27T05:31:33.367Z,99.60
2023-01-27T05:34:36.054Z,99.60
2023-01-27T05:37:37.851Z,99.50
2023-01-27T05:40:39.580Z,99.50
2023-01-27T05:43:43.258Z,99.50
2023-01-27T05:46:45.097Z,99.30
2023-01-27T05:49:46.848Z,99.10
2023-01-27T05:52:48.657Z,99.10
2023-01-27T05:55:51.683Z,99.10
2023-01-27T05:58:54.894Z,99.00
2023-01-27T06:01:56.642Z,99.00
2023-01-27T06:04:58.364Z,99.10
2023-01-27T06:08:00.104Z,99.00
2023-01-27T06:11:02.130Z,99.00
2023-01-27T06:14:03.867Z,99.10
2023-01-27T06:17:05.647Z,99.10
2023-01-27T06:20:08.062Z,99.20
2023-01-27T06:23:11.570Z,99.20
2023-01-27T06:26:16.348Z,99.10
2023-01-27T06:29:18.142Z,99.00
2023-01-27T06:32:19.960Z,99.10
2023-01-27T06:35:21.790Z,99.10
2023-01-27T06:38:23.917Z,99.10
2023-01-27T06:41:25.644Z,99.20
2023-01-27T06:44:27.436Z,99.30
2023-01-27T06:47:29.179Z,99.40
2023-01-27T06:50:30.867Z,99.50
2023-01-27T06:53:32.812Z,99.70
2023-01-27T06:56:34.772Z,99.70
2023-01-27T06:59:36.462Z,99.70
2023-01-27T07:02:38.229Z,99.70
2023-01-27T07:05:41.893Z,99.70
2023-01-27T07:08:46.922Z,99.80
2023-01-27T07:11:48.698Z,99.90
2023-01-27T07:14:50.403Z,99.90
2023-01-27T07:17:52.147Z,99.90
2023-01-27T07:20:53.924Z,99.90
2023-01-27T07:23:55.676Z,99.90
2023-01-27T07:26:57.465Z,99.90
2023-01-27T07:29:59.246Z,99.90
2023-01-27T07:33:12.175Z,99.90
2023-01-27T07:36:13.979Z,99.70
2023-01-27T07:39:15.689Z,99.90
2023-01-27T07:42:17.367Z,99.90
2023-01-27T07:45:19.120Z,99.90
2023-01-27T07:48:20.879Z,99.90
2023-01-27T07:51:22.591Z,99.90
2023-01-27T07:54:25.257Z,99.90
2023-01-27T07:57:27.086Z,99.90
2023-01-27T08:00:29.473Z,99.90
2023-01-27T08:03:31.819Z,99.90
2023-01-27T08:06:33.592Z,99.90
2023-01-27T08:09:35.323Z,99.90
2023-01-27T08:12:37.068Z,99.90
2023-01-27T08:15:39.116Z,99.90
2023-01-27T08:18:41.373Z,99.90
2023-01-27T08:21:43.102Z,99.90
2023-01-27T08:24:44.830Z,99.90
2023-01-27T08:27:50.031Z,99.90
2023-01-27T08:30:52.766Z,99.90
2023-01-27T08:33:54.869Z,99.90
2023-01-27T08:36:56.696Z,99.90
2023-01-27T08:39:58.412Z,99.90
2023-01-27T08:43:03.406Z,99.90
2023-01-27T08:46:06.818Z,99.90
2023-01-27T08:49:08.716Z,99.90
2023-01-27T08:52:10.412Z,99.90
2023-01-27T08:55:12.575Z,99.90
2023-01-27T08:58:14.498Z,99.90
2023-01-27T09:01:16.982Z,99.90
2023-01-27T09:04:18.749Z,99.90
2023-01-27T09:07:20.477Z,99.90
2023-01-27T09:10:22.543Z,99.90
2023-01-27T09:13:24.564Z,99.90
2023-01-27T09:16:26.889Z,99.90
2023-01-27T09:19:28.641Z,99.90
2023-01-27T09:22:30.348Z,99.90
2023-01-27T09:25:32.325Z,99.90
2023-01-27T09:28:34.026Z,99.90
2023-01-27T09:31:35.938Z,99.90
2023-01-27T09:34:37.963Z,99.90
2023-01-27T09:37:49.881Z,99.90
2023-01-27T09:41:23.887Z,99.90
2023-01-27T09:44:37.387Z,99.90
2023-01-27T09:48:06.923Z,99.90
2023-01-27T09:51:35.902Z,99.60
2023-01-27T09:55:05.459Z,99.70
2023-01-27T09:58:19.717Z,99.70
2023-01-27T10:01:47.401Z,99.90
2023-01-27T10:05:01.179Z,99.60
2023-01-27T10:08:14.540Z,99.70
2023-01-27T10:11:48.600Z,99.90
2023-01-27T10:15:18.120Z,99.90
2023-01-27T10:18:38.503Z,99.80
2023-01-27T10:22:01.430Z,99.90
2023-01-27T10:25:29.176Z,99.90
2023-01-27T10:28:32.471Z,99.90
2023-01-27T10:32:05.630Z,99.90
2023-01-27T10:35:29.848Z,99.90
2023-01-27T10:38:52.052Z,99.90
2023-01-27T10:41:56.804Z,99.60
2023-01-27T10:44:58.458Z,99.90
2023-01-27T10:48:18.522Z,99.90
2023-01-27T10:51:31.286Z,99.90
2023-01-27T10:54:53.384Z,99.80
2023-01-27T10:58:17.360Z,99.40
2023-01-27T11:01:26.228Z,99.70
2023-01-27T11:04:43.029Z,99.40
2023-01-27T11:07:54.420Z,98.60
2023-01-27T11:11:18.905Z,98.70
2023-01-27T11:14:31.045Z,98.90
2023-01-27T11:17:40.818Z,98.70
2023-01-27T11:20:51.407Z,99.00
2023-01-27T11:23:57.040Z,98.90
2023-01-27T11:27:20.013Z,99.20
2023-01-27T11:30:33.906Z,98.60
2023-01-27T11:33:55.046Z,99.10
2023-01-27T11:36:57.463Z,99.20
2023-01-27T11:39:59.754Z,99.80
2023-01-27T11:43:02.497Z,99.90
2023-01-27T11:46:13.909Z,99.90
2023-01-27T11:49:21.815Z,99.60
2023-01-27T11:52:28.963Z,99.90
2023-01-27T11:55:38.063Z,99.90
2023-01-27T11:58:47.327Z,99.90
2023-01-27T12:02:07.110Z,99.90
2023-01-27T12:05:12.166Z,99.70
2023-01-27T12:08:37.995Z,99.90
2023-01-27T12:11:40.035Z,99.70
2023-01-27T12:14:57.071Z,99.90
2023-01-27T12:18:02.813Z,99.90
2023-01-27T12:21:08.083Z,99.90
2023-01-27T12:24:27.977Z,99.90
2023-01-27T12:27:36.742Z,99.90
2023-01-27T12:30:39.145Z,99.90
2023-01-27T12:33:46.580Z,99.90
2023-01-27T12:36:50.002Z,99.90
2023-01-27T12:40:00.393Z,99.90
2023-01-27T12:43:02.116Z,99.90
2023-01-27T12:46:25.441Z,99.90
2023-01-27T12:49:33.887Z,99.30
2023-01-27T12:52:35.569Z,99.80
2023-01-27T12:55:55.771Z,99.90
2023-01-27T12:59:01.245Z,99.80
2023-01-27T13:02:22.822Z,99.60
2023-01-27T13:05:25.691Z,99.30
2023-01-27T13:08:33.047Z,99.80
2023-01-27T13:11:40.860Z,99.70
2023-01-27T13:14:43.740Z,99.70
2023-01-27T13:17:50.833Z,99.80
2023-01-27T13:21:03.629Z,99.80
2023-01-27T13:24:14.235Z,99.30
2023-01-27T13:27:20.222Z,99.40
2023-01-27T13:30:32.003Z,99.70
2023-01-27T13:33:41.116Z,99.60
2023-01-27T13:37:02.580Z,99.50
2023-01-27T13:40:10.170Z,99.30
2023-01-27T13:43:38.304Z,99.90
2023-01-27T13:46:41.734Z,99.70
2023-01-27T13:49:52.379Z,99.90
2023-01-27T13:52:56.966Z,99.90
2023-01-27T13:56:16.361Z,99.90
2023-01-27T13:59:36.322Z,99.90
2023-01-27T14:03:07.508Z,99.90
2023-01-27T14:06:09.256Z,99.60
2023-01-27T14:09:20.015Z,99.90
2023-01-27T14:12:40.300Z,99.90
2023-01-27T14:16:17.086Z,99.80
2023-01-27T14:19:59.138Z,99.90
2023-01-27T14:23:25.593Z,99.60
2023-01-27T14:26:39.620Z,99.80
2023-01-27T14:30:21.118Z,99.90
2023-01-27T14:33:42.968Z,99.90
2023-01-27T14:36:55.320Z,99.90
2023-01-27T14:39:56.971Z,99.90
2023-01-27T14:43:29.854Z,99.90
2023-01-27T14:46:44.802Z,99.80
2023-01-27T14:50:04.769Z,99.70
2023-01-27T14:53:24.008Z,99.90
2023-01-27T14:56:41.643Z,99.70
2023-01-27T15:00:07.600Z,99.70
2023-01-27T15:03:47.344Z,99.40
2023-01-27T15:07:14.828Z,99.40
2023-01-27T15:10:31.057Z,99.50
2023-01-27T15:14:07.855Z,99.80
2023-01-27T15:17:42.349Z,99.80
2023-01-27T15:21:05.031Z,99.40
2023-01-27T15:24:28.185Z,99.40
2023-01-27T15:27:30.382Z,99.80
2023-01-27T15:30:38.393Z,99.90
2023-01-27T15:33:56.622Z,99.90
2023-01-27T15:37:01.625Z,99.60
2023-01-27T15:40:06.108Z,99.90
2023-01-27T15:43:15.440Z,99.90
2023-01-27T15:46:31.255Z,99.80
2023-01-27T15:49:48.565Z,99.50
2023-01-27T15:52:51.287Z,99.60
2023-01-27T15:55:55.416Z,99.90
2023-01-27T15:59:04.424Z,99.90
2023-01-27T16:02:20.347Z,99.90
2023-01-27T16:05:26.792Z,99.70
2023-01-27T16:08:37.581Z,99.90
2023-01-27T16:11:41.988Z,99.90
2023-01-27T16:14:45.207Z,99.90
2023-01-27T16:18:08.508Z,99.90
2023-01-27T16:21:38.121Z,99.50
2023-01-27T16:24:52.614Z,99.90
2023-01-27T16:28:00.661Z,99.90
2023-01-27T16:31:13.886Z,99.90
2023-01-27T16:34:25.923Z,99.80
2023-01-27T16:37:35.019Z,99.90
2023-01-27T16:40:38.787Z,99.90
2023-01-27T16:43:40.429Z,99.90
2023-01-27T16:46:47.131Z,99.90
2023-01-27T16:49:51.021Z,99.90
2023-01-27T16:52:52.959Z,99.90
2023-01-27T16:56:05.209Z,99.90
2023-01-27T16:59:10.130Z,99.90
2023-01-27T17:02:20.716Z,99.90
2023-01-27T17:05:23.176Z,99.90
2023-01-27T17:08:35.367Z,99.90
2023-01-27T17:11:37.258Z,99.90
2023-01-27T17:14:46.166Z,99.90
2023-01-27T17:17:49.783Z,99.90
2023-01-27T17:20:52.491Z,99.90
2023-01-27T17:24:00.258Z,99.90
2023-01-27T17:27:07.490Z,99.90
2023-01-27T17:30:24.830Z,99.90
2023-01-27T17:33:26.804Z,99.90
2023-01-27T17:36:28.524Z,99.90
2023-01-27T17:39:32.977Z,99.90
2023-01-27T17:42:34.732Z,99.90
2023-01-27T17:45:36.698Z,99.90
2023-01-27T17:48:42.107Z,99.90
2023-01-27T17:51:48.669Z,99.90
2023-01-27T17:54:51.465Z,99.90
2023-01-27T17:58:06.354Z,99.90
2023-01-27T18:01:08.525Z,99.90
2023-01-27T18:04:11.103Z,99.90
2023-01-27T18:07:12.807Z,99.90
2023-01-27T18:10:35.320Z,99.90
2023-01-27T18:13:40.327Z,99.90
2023-01-27T18:16:42.136Z,99.90
2023-01-27T18:19:53.343Z,99.90
2023-01-27T18:22:56.506Z,99.90
2023-01-27T18:26:24.701Z,99.90
2023-01-27T18:29:33.680Z,99.90
2023-01-27T18:32:41.745Z,99.90
2023-01-27T18:35:46.510Z,99.90
2023-01-27T18:38:49.932Z,99.90
2023-01-27T18:41:52.520Z,99.90
2023-01-27T18:44:55.410Z,99.90
2023-01-27T18:47:57.763Z,99.90
2023-01-27T18:50:59.446Z,99.90
2023-01-27T18:54:01.173Z,99.90
2023-01-27T18:57:02.859Z,99.90
2023-01-27T19:00:06.375Z,99.90
2023-01-27T19:03:14.620Z,99.90
2023-01-27T19:06:17.050Z,99.90
2023-01-27T19:09:19.267Z,99.90
2023-01-27T19:12:21.006Z,99.90
2023-01-27T19:15:26.339Z,99.90
2023-01-27T19:18:39.278Z,99.90
2023-01-27T19:21:41.142Z,99.90
2023-01-27T19:24:45.589Z,99.90
2023-01-27T19:27:51.271Z,99.90
2023-01-27T19:30:53.113Z,99.90
2023-01-27T19:33:56.736Z,99.90
2023-01-27T19:36:59.401Z,99.90
2023-01-27T19:40:02.194Z,99.90
2023-01-27T19:43:03.876Z,99.90
2023-01-27T19:46:15.154Z,99.90
2023-01-27T19:49:18.868Z,99.90
2023-01-27T19:52:20.587Z,99.90
2023-01-27T19:55:22.546Z,99.90
2023-01-27T19:58:26.649Z,99.90
2023-01-27T20:01:28.379Z,99.90
2023-01-27T20:04:30.132Z,99.90
2023-01-27T20:07:32.088Z,99.90
2023-01-27T20:10:33.829Z,99.90
2023-01-27T20:13:35.519Z,99.90
2023-01-27T20:16:37.398Z,99.90
2023-01-27T20:19:39.160Z,99.90
2023-01-27T20:22:40.908Z,99.90
2023-01-27T20:25:42.700Z,99.90
2023-01-27T20:28:44.812Z,99.90
2023-01-27T20:31:46.617Z,99.90
2023-01-27T20:34:48.314Z,99.90
2023-01-27T20:37:51.383Z,99.90
2023-01-27T20:40:53.563Z,99.90
2023-01-27T20:43:57.056Z,99.90
2023-01-27T20:46:58.812Z,99.90
2023-01-27T20:50:00.544Z,99.90
2023-01-27T20:53:03.062Z,99.90
2023-01-27T20:56:04.943Z,99.90
2023-01-27T20:59:06.654Z,99.90
2023-01-27T21:02:08.559Z,99.90
2023-01-27T21:05:11.381Z,99.90
2023-01-27T21:08:13.266Z,99.90
2023-01-27T21:11:17.891Z,99.90
2023-01-27T21:14:19.569Z,99.90
2023-01-27T21:17:21.296Z,99.90
2023-01-27T21:20:23.079Z,99.90
2023-01-27T21:23:26.526Z,99.90
2023-01-27T21:26:28.380Z,99.90
2023-01-27T21:29:30.898Z,99.90
2023-01-27T21:32:32.584Z,99.60
2023-01-27T21:35:34.395Z,99.40
2023-01-27T21:38:36.094Z,99.30
2023-01-27T21:41:53.076Z,99.20
2023-01-27T21:45:13.250Z,99.20
2023-01-27T21:48:15.215Z,99.20
2023-01-27T21:51:16.963Z,99.40
2023-01-27T21:54:18.648Z,99.60
2023-01-27T21:57:20.459Z,99.90
2023-01-27T22:00:25.924Z,99.90
2023-01-27T22:03:30.655Z,99.90
2023-01-27T22:06:32.909Z,99.90
2023-01-27T22:09:34.587Z,99.90
2023-01-27T22:12:36.497Z,99.90
2023-01-27T22:15:38.191Z,99.90
2023-01-27T22:18:39.884Z,99.90
2023-01-27T22:21:41.600Z,99.90
2023-01-27T22:24:43.405Z,99.90
2023-01-27T22:27:45.990Z,99.90
2023-01-27T22:30:47.706Z,99.90
2023-01-27T22:33:49.441Z,99.90
2023-01-27T22:36:51.943Z,99.90
2023-01-27T22:39:53.656Z,99.90
2023-01-27T22:42:55.396Z,99.90
2023-01-27T22:46:03.809Z,99.90
2023-01-27T22:49:05.906Z,99.90
2023-01-27T22:52:07.635Z,99.90
2023-01-27T22:55:11.983Z,99.90
2023-01-27T22:58:13.711Z,99.90
2023-01-27T23:01:15.401Z,99.90
2023-01-27T23:04:17.123Z,99.90
2023-01-27T23:07:18.851Z,99.90
2023-01-27T23:10:20.560Z,99.90
2023-01-27T23:13:22.253Z,99.90
2023-01-27T23:16:24.139Z,99.90
2023-01-27T23:19:25.864Z,99.90
2023-01-27T23:22:27.633Z,99.90
2023-01-27T23:25:29.303Z,99.90
2023-01-27T23:28:30.989Z,99.90
2023-01-27T23:31:32.831Z,99.90
2023-01-27T23:34:34.560Z,99.90
2023-01-27T23:37:36.400Z,99.90
2023-01-27T23:40:38.411Z,99.90
2023-01-27T23:43:40.133Z,99.90
2023-01-27T23:46:43.304Z,99.90
2023-01-27T23:49:45.057Z,99.90
2023-01-27T23:52:47.092Z,99.90
2023-01-27T23:55:59.169Z,99.90
2023-01-27T23:59:00.958Z,99.90
